createdAt,value
2019-01-21T00:01:15.552Z,2.10
2019-01-21T00:21:25.214Z,2.41
2019-01-21T00:41:34.883Z,2.35
2019-01-21T01:01:46.815Z,3.03
2019-01-21T01:21:46.425Z,4.02
2019-01-21T01:41:55.799Z,4.67
2019-01-21T02:02:05.301Z,4.66
2019-01-21T02:22:14.766Z,4.38
2019-01-21T02:42:26.729Z,4.56
2019-01-21T03:02:26.080Z,4.54
2019-01-21T03:22:35.671Z,4.08
2019-01-21T03:42:45.375Z,3.79
2019-01-21T04:02:54.903Z,3.59
2019-01-21T04:23:04.520Z,2.60
2019-01-21T04:43:16.468Z,2.73
2019-01-21T05:03:16.418Z,2.18
2019-01-21T05:23:26.011Z,1.95
2019-01-21T05:43:37.768Z,1.74
2019-01-21T06:03:37.347Z,1.73
2019-01-21T06:23:51.536Z,1.99
2019-01-21T06:43:51.118Z,2.22
2019-01-21T07:04:05.026Z,2.55
2019-01-21T07:24:04.493Z,2.33
2019-01-21T07:44:16.446Z,2.13
2019-01-21T08:04:16.031Z,2.19
2019-01-21T08:24:25.604Z,2.77
2019-01-21T08:44:35.256Z,2.88
2019-01-21T09:04:44.848Z,2.68
2019-01-21T09:24:54.458Z,2.58
2019-01-21T09:45:06.372Z,2.85
2019-01-21T10:05:05.884Z,2.53
2019-01-21T10:25:17.785Z,3.08
2019-01-21T10:45:17.445Z,3.07
2019-01-21T11:05:27.179Z,3.00
2019-01-21T11:25:39.120Z,4.80
2019-01-21T11:45:38.858Z,2.84
2019-01-21T12:05:49.526Z,2.50
2019-01-21T12:25:50.076Z,2.57
2019-01-21T12:45:49.656Z,2.40
2019-01-21T13:06:03.852Z,2.79
2019-01-21T13:26:03.680Z,2.70
2019-01-21T13:46:13.322Z,3.22
2019-01-21T14:06:24.127Z,3.50
2019-01-21T14:26:23.719Z,3.97
2019-01-21T14:46:34.263Z,4.43
2019-01-21T15:06:35.976Z,4.91
2019-01-21T15:26:36.433Z,5.19
2019-01-21T15:46:45.677Z,6.22
2019-01-21T16:06:52.599Z,6.24
2019-01-21T16:26:56.772Z,5.89
2019-01-21T16:47:05.152Z,6.67
2019-01-21T17:07:10.675Z,6.84
2019-01-21T17:27:16.369Z,7.60
2019-01-21T17:47:25.228Z,8.03
2019-01-21T18:07:31.332Z,7.77
2019-01-21T18:27:33.319Z,8.18
2019-01-21T18:47:39.332Z,8.03
2019-01-21T19:07:44.561Z,8.57
2019-01-21T19:27:52.337Z,8.07
2019-01-21T19:48:00.369Z,8.07
2019-01-21T20:08:05.499Z,7.81
2019-01-21T20:28:10.483Z,5.45
2019-01-21T20:48:10.114Z,6.30
2019-01-21T21:08:19.748Z,5.94
2019-01-21T21:28:31.713Z,6.15
2019-01-21T21:48:31.891Z,6.24
2019-01-21T22:08:40.540Z,6.12
2019-01-21T22:28:52.435Z,7.09
2019-01-21T22:48:51.999Z,6.96
2019-01-21T23:09:01.818Z,7.29
2019-01-21T23:29:13.729Z,7.65
2019-01-21T23:49:13.391Z,8.37
